KAUS

Austin-Bergstrom International Airport

Austin, Texas, USA
METAR KAUS 181253Z 18005KT 1/4SM R17L/4000V6000FT -DZ FG OVC002 13/13 A3001 RMK AO2 SFC VIS 1/2 DZB32 SLP161 P0000 T01330128 $
Observed Flight Rules
Jan-18 @ 12:53 UTC (58 minutes ago) Instrument Flight Rules
Wind Visibility Clouds Conditions
180° at 5 knots 1/4 miles
  • Overcast at 200' AGL
  • Light Drizzle
  • Fog
Temperatures Readings Precipitation
Current 13°C / 55°F
Dewpoint 13°C / 55°F
Humidity 100%
Altimeter 30.01" Hg
Pressure 1016.1 hPa
Elevation 166
Current Rain 0.01
METAR KAUS 181253Z 18005KT 1/4SM R17L/4000V6000FT -DZ FG OVC002 13/13 A3001 RMK AO2 SFC VIS 1/2 DZB32 SLP161 P0000 T01330128 $
Observed Flight Rules
Jan-18 @ 12:53 UTC
(58 minutes ago)
LIFR
Wind Visibility
180° at 5 knots 1/4 miles
Clouds
  • Overcast at 200' AGL
Conditions
  • Light Drizzle
  • Fog
Temperature Dewpoint
13°C / 55°F 13°C / 55°F
Humidity Altimeter Pressure
100% 30.01" Hg 1016.1 hPa
Current Rain
0.01